sensor_id;sensor_type;location;lat;lon;timestamp;P1;durP1;ratioP1;P2;durP2;ratioP2
20559;SDS011;10438;51.454;6.718;2022-12-08T00:00:43;38.43;;;18.70;;
20559;SDS011;10438;51.454;6.718;2022-12-08T00:03:08;37.07;;;19.47;;
20559;SDS011;10438;51.454;6.718;2022-12-08T00:05:34;27.00;;;17.23;;
20559;SDS011;10438;51.454;6.718;2022-12-08T00:08:18;35.23;;;19.30;;
20559;SDS011;10438;51.454;6.718;2022-12-08T00:11:02;34.63;;;18.37;;
20559;SDS011;10438;51.454;6.718;2022-12-08T00:13:28;32.80;;;20.63;;
20559;SDS011;10438;51.454;6.718;2022-12-08T00:15:58;31.50;;;19.03;;
20559;SDS011;10438;51.454;6.718;2022-12-08T00:18:26;27.40;;;18.33;;
20559;SDS011;10438;51.454;6.718;2022-12-08T00:20:55;33.47;;;19.03;;
20559;SDS011;10438;51.454;6.718;2022-12-08T00:23:21;30.33;;;18.93;;
20559;SDS011;10438;51.454;6.718;2022-12-08T00:25:47;35.97;;;19.73;;
20559;SDS011;10438;51.454;6.718;2022-12-08T00:28:13;35.37;;;20.17;;
20559;SDS011;10438;51.454;6.718;2022-12-08T00:30:39;30.13;;;18.80;;
20559;SDS011;10438;51.454;6.718;2022-12-08T00:33:05;33.20;;;18.60;;
20559;SDS011;10438;51.454;6.718;2022-12-08T00:35:30;33.03;;;18.73;;
20559;SDS011;10438;51.454;6.718;2022-12-08T00:37:56;29.43;;;19.40;;
20559;SDS011;10438;51.454;6.718;2022-12-08T00:40:24;33.83;;;18.57;;
20559;SDS011;10438;51.454;6.718;2022-12-08T00:42:50;28.63;;;18.70;;
20559;SDS011;10438;51.454;6.718;2022-12-08T00:45:15;33.90;;;19.63;;
20559;SDS011;10438;51.454;6.718;2022-12-08T00:47:41;29.13;;;18.90;;
20559;SDS011;10438;51.454;6.718;2022-12-08T00:50:06;28.97;;;19.20;;
20559;SDS011;10438;51.454;6.718;2022-12-08T00:52:32;33.93;;;19.23;;
20559;SDS011;10438;51.454;6.718;2022-12-08T00:54:57;28.50;;;18.37;;
20559;SDS011;10438;51.454;6.718;2022-12-08T00:57:23;33.47;;;18.83;;
20559;SDS011;10438;51.454;6.718;2022-12-08T00:59:49;33.10;;;19.43;;
20559;SDS011;10438;51.454;6.718;2022-12-08T01:02:14;31.47;;;20.00;;
20559;SDS011;10438;51.454;6.718;2022-12-08T01:04:40;30.33;;;19.50;;
20559;SDS011;10438;51.454;6.718;2022-12-08T01:07:05;30.83;;;19.10;;
20559;SDS011;10438;51.454;6.718;2022-12-08T01:09:32;30.50;;;19.53;;
20559;SDS011;10438;51.454;6.718;2022-12-08T01:11:57;32.23;;;19.10;;
20559;SDS011;10438;51.454;6.718;2022-12-08T01:14:23;31.47;;;19.47;;
20559;SDS011;10438;51.454;6.718;2022-12-08T01:16:49;30.27;;;19.37;;
20559;SDS011;10438;51.454;6.718;2022-12-08T01:19:14;35.93;;;20.37;;
20559;SDS011;10438;51.454;6.718;2022-12-08T01:21:41;34.17;;;20.20;;
20559;SDS011;10438;51.454;6.718;2022-12-08T01:24:15;33.67;;;21.13;;
20559;SDS011;10438;51.454;6.718;2022-12-08T01:26:44;36.17;;;21.23;;
20559;SDS011;10438;51.454;6.718;2022-12-08T01:29:10;38.73;;;22.43;;
20559;SDS011;10438;51.454;6.718;2022-12-08T01:31:37;37.53;;;22.57;;
20559;SDS011;10438;51.454;6.718;2022-12-08T01:34:03;38.07;;;22.47;;
20559;SDS011;10438;51.454;6.718;2022-12-08T01:36:30;44.20;;;25.70;;
20559;SDS011;10438;51.454;6.718;2022-12-08T01:38:58;40.13;;;24.93;;
20559;SDS011;10438;51.454;6.718;2022-12-08T01:41:26;38.27;;;23.80;;
20559;SDS011;10438;51.454;6.718;2022-12-08T01:43:54;42.73;;;25.63;;
20559;SDS011;10438;51.454;6.718;2022-12-08T01:46:29;43.97;;;25.27;;
20559;SDS011;10438;51.454;6.718;2022-12-08T01:49:04;44.93;;;26.17;;
20559;SDS011;10438;51.454;6.718;2022-12-08T01:51:41;52.27;;;27.60;;
20559;SDS011;10438;51.454;6.718;2022-12-08T01:54:13;47.33;;;28.43;;
20559;SDS011;10438;51.454;6.718;2022-12-08T01:56:47;50.23;;;27.77;;
20559;SDS011;10438;51.454;6.718;2022-12-08T01:59:22;49.90;;;27.97;;
20559;SDS011;10438;51.454;6.718;2022-12-08T02:01:49;50.73;;;28.87;;
20559;SDS011;10438;51.454;6.718;2022-12-08T02:04:15;52.83;;;29.17;;
20559;SDS011;10438;51.454;6.718;2022-12-08T02:06:42;54.00;;;29.13;;
20559;SDS011;10438;51.454;6.718;2022-12-08T02:09:08;55.50;;;29.23;;
20559;SDS011;10438;51.454;6.718;2022-12-08T02:11:35;54.60;;;28.90;;
20559;SDS011;10438;51.454;6.718;2022-12-08T02:14:00;53.77;;;28.53;;
20559;SDS011;10438;51.454;6.718;2022-12-08T02:19:43;53.67;;;29.47;;
20559;SDS011;10438;51.454;6.718;2022-12-08T02:22:29;47.77;;;29.20;;
20559;SDS011;10438;51.454;6.718;2022-12-08T02:25:00;54.97;;;30.20;;
20559;SDS011;10438;51.454;6.718;2022-12-08T02:41:17;62.40;;;29.50;;
20559;SDS011;10438;51.454;6.718;2022-12-08T02:44:07;51.00;;;28.17;;
20559;SDS011;10438;51.454;6.718;2022-12-08T02:46:50;55.13;;;29.20;;
20559;SDS011;10438;51.454;6.718;2022-12-08T02:49:19;54.47;;;28.00;;
20559;SDS011;10438;51.454;6.718;2022-12-08T02:51:45;54.90;;;28.57;;
20559;SDS011;10438;51.454;6.718;2022-12-08T02:54:10;54.07;;;27.60;;
20559;SDS011;10438;51.454;6.718;2022-12-08T02:56:59;49.77;;;28.60;;
20559;SDS011;10438;51.454;6.718;2022-12-08T02:59:52;51.83;;;28.87;;
20559;SDS011;10438;51.454;6.718;2022-12-08T03:05:05;55.37;;;28.37;;
20559;SDS011;10438;51.454;6.718;2022-12-08T03:07:52;48.97;;;26.77;;
20559;SDS011;10438;51.454;6.718;2022-12-08T03:10:39;49.40;;;26.53;;
20559;SDS011;10438;51.454;6.718;2022-12-08T03:13:28;54.63;;;27.93;;
20559;SDS011;10438;51.454;6.718;2022-12-08T03:16:00;47.10;;;26.87;;
20559;SDS011;10438;51.454;6.718;2022-12-08T03:18:30;49.47;;;26.20;;
20559;SDS011;10438;51.454;6.718;2022-12-08T03:20:58;48.43;;;26.13;;
20559;SDS011;10438;51.454;6.718;2022-12-08T03:23:25;52.40;;;27.10;;
20559;SDS011;10438;51.454;6.718;2022-12-08T03:25:58;49.83;;;27.13;;
20559;SDS011;10438;51.454;6.718;2022-12-08T03:28:29;55.13;;;27.03;;
20559;SDS011;10438;51.454;6.718;2022-12-08T03:30:56;50.20;;;27.33;;
20559;SDS011;10438;51.454;6.718;2022-12-08T03:33:30;46.87;;;24.80;;
20559;SDS011;10438;51.454;6.718;2022-12-08T03:35:59;48.13;;;25.53;;
20559;SDS011;10438;51.454;6.718;2022-12-08T03:38:35;49.37;;;24.93;;
20559;SDS011;10438;51.454;6.718;2022-12-08T03:41:02;46.17;;;25.30;;
20559;SDS011;10438;51.454;6.718;2022-12-08T03:43:44;42.93;;;23.97;;
20559;SDS011;10438;51.454;6.718;2022-12-08T03:46:18;45.17;;;24.40;;
20559;SDS011;10438;51.454;6.718;2022-12-08T03:48:45;43.47;;;24.53;;
20559;SDS011;10438;51.454;6.718;2022-12-08T03:51:11;42.47;;;24.97;;
20559;SDS011;10438;51.454;6.718;2022-12-08T03:53:37;44.40;;;24.83;;
20559;SDS011;10438;51.454;6.718;2022-12-08T03:56:10;40.13;;;22.33;;
20559;SDS011;10438;51.454;6.718;2022-12-08T03:58:41;40.30;;;23.17;;
20559;SDS011;10438;51.454;6.718;2022-12-08T04:01:07;43.13;;;23.17;;
20559;SDS011;10438;51.454;6.718;2022-12-08T04:03:32;43.70;;;23.33;;
20559;SDS011;10438;51.454;6.718;2022-12-08T04:05:58;42.07;;;24.13;;
20559;SDS011;10438;51.454;6.718;2022-12-08T04:08:23;42.33;;;23.00;;
20559;SDS011;10438;51.454;6.718;2022-12-08T04:10:49;41.90;;;24.17;;
20559;SDS011;10438;51.454;6.718;2022-12-08T04:13:14;41.43;;;23.50;;
20559;SDS011;10438;51.454;6.718;2022-12-08T04:15:43;42.23;;;23.27;;
20559;SDS011;10438;51.454;6.718;2022-12-08T04:18:10;43.97;;;22.97;;
20559;SDS011;10438;51.454;6.718;2022-12-08T04:20:39;41.60;;;24.70;;
20559;SDS011;10438;51.454;6.718;2022-12-08T04:23:08;41.43;;;23.40;;
20559;SDS011;10438;51.454;6.718;2022-12-08T04:25:35;37.97;;;22.20;;
20559;SDS011;10438;51.454;6.718;2022-12-08T04:28:01;39.17;;;22.83;;
20559;SDS011;10438;51.454;6.718;2022-12-08T04:30:27;42.33;;;23.27;;
20559;SDS011;10438;51.454;6.718;2022-12-08T04:32:52;40.43;;;22.23;;
20559;SDS011;10438;51.454;6.718;2022-12-08T04:35:18;39.37;;;22.90;;
20559;SDS011;10438;51.454;6.718;2022-12-08T04:37:43;39.40;;;21.57;;
20559;SDS011;10438;51.454;6.718;2022-12-08T04:40:09;34.07;;;21.13;;
20559;SDS011;10438;51.454;6.718;2022-12-08T04:42:36;37.97;;;22.03;;
20559;SDS011;10438;51.454;6.718;2022-12-08T04:45:02;34.73;;;21.37;;
20559;SDS011;10438;51.454;6.718;2022-12-08T04:47:28;37.27;;;20.83;;
20559;SDS011;10438;51.454;6.718;2022-12-08T04:49:54;33.90;;;20.47;;
20559;SDS011;10438;51.454;6.718;2022-12-08T04:52:19;36.90;;;21.30;;
20559;SDS011;10438;51.454;6.718;2022-12-08T04:54:45;43.07;;;24.33;;
20559;SDS011;10438;51.454;6.718;2022-12-08T04:57:10;34.40;;;20.67;;
20559;SDS011;10438;51.454;6.718;2022-12-08T04:59:36;35.87;;;19.90;;
20559;SDS011;10438;51.454;6.718;2022-12-08T05:02:02;33.20;;;20.07;;
20559;SDS011;10438;51.454;6.718;2022-12-08T05:04:27;35.53;;;20.43;;
20559;SDS011;10438;51.454;6.718;2022-12-08T05:06:53;35.97;;;19.67;;
20559;SDS011;10438;51.454;6.718;2022-12-08T05:09:19;34.47;;;19.37;;
20559;SDS011;10438;51.454;6.718;2022-12-08T05:11:44;30.33;;;19.63;;
20559;SDS011;10438;51.454;6.718;2022-12-08T05:14:10;33.17;;;19.63;;
20559;SDS011;10438;51.454;6.718;2022-12-08T05:16:37;29.57;;;18.23;;
20559;SDS011;10438;51.454;6.718;2022-12-08T05:19:03;35.80;;;20.87;;
20559;SDS011;10438;51.454;6.718;2022-12-08T05:21:29;27.60;;;17.93;;
20559;SDS011;10438;51.454;6.718;2022-12-08T05:23:55;27.97;;;18.70;;
20559;SDS011;10438;51.454;6.718;2022-12-08T05:26:20;28.37;;;17.80;;
20559;SDS011;10438;51.454;6.718;2022-12-08T05:28:46;29.53;;;18.37;;
20559;SDS011;10438;51.454;6.718;2022-12-08T05:31:12;29.60;;;18.37;;
20559;SDS011;10438;51.454;6.718;2022-12-08T05:33:39;28.47;;;16.73;;
20559;SDS011;10438;51.454;6.718;2022-12-08T05:36:05;26.07;;;16.33;;
20559;SDS011;10438;51.454;6.718;2022-12-08T05:38:31;24.67;;;16.03;;
20559;SDS011;10438;51.454;6.718;2022-12-08T05:40:57;27.63;;;16.57;;
20559;SDS011;10438;51.454;6.718;2022-12-08T05:43:22;28.43;;;16.37;;
20559;SDS011;10438;51.454;6.718;2022-12-08T05:45:48;27.40;;;16.57;;
20559;SDS011;10438;51.454;6.718;2022-12-08T05:48:14;29.40;;;18.47;;
20559;SDS011;10438;51.454;6.718;2022-12-08T05:50:44;28.13;;;17.90;;
20559;SDS011;10438;51.454;6.718;2022-12-08T05:53:10;32.07;;;18.60;;
20559;SDS011;10438;51.454;6.718;2022-12-08T05:55:36;29.50;;;17.50;;
20559;SDS011;10438;51.454;6.718;2022-12-08T05:58:01;33.50;;;18.60;;
20559;SDS011;10438;51.454;6.718;2022-12-08T06:00:27;33.07;;;19.20;;
20559;SDS011;10438;51.454;6.718;2022-12-08T06:02:53;35.83;;;18.93;;
20559;SDS011;10438;51.454;6.718;2022-12-08T06:05:18;36.00;;;19.73;;
20559;SDS011;10438;51.454;6.718;2022-12-08T06:07:44;34.10;;;19.30;;
20559;SDS011;10438;51.454;6.718;2022-12-08T06:10:09;39.37;;;20.63;;
20559;SDS011;10438;51.454;6.718;2022-12-08T06:12:35;38.90;;;20.50;;
20559;SDS011;10438;51.454;6.718;2022-12-08T06:15:01;33.77;;;19.50;;
20559;SDS011;10438;51.454;6.718;2022-12-08T06:17:27;39.23;;;20.10;;
20559;SDS011;10438;51.454;6.718;2022-12-08T06:19:52;41.20;;;21.77;;
20559;SDS011;10438;51.454;6.718;2022-12-08T06:22:18;38.07;;;20.80;;
20559;SDS011;10438;51.454;6.718;2022-12-08T06:24:43;42.47;;;22.03;;
20559;SDS011;10438;51.454;6.718;2022-12-08T06:27:09;38.83;;;21.63;;
20559;SDS011;10438;51.454;6.718;2022-12-08T06:29:34;40.87;;;21.73;;
20559;SDS011;10438;51.454;6.718;2022-12-08T06:32:00;39.67;;;21.63;;
20559;SDS011;10438;51.454;6.718;2022-12-08T06:34:25;41.83;;;20.90;;
20559;SDS011;10438;51.454;6.718;2022-12-08T06:36:51;41.60;;;21.57;;
20559;SDS011;10438;51.454;6.718;2022-12-08T06:39:16;41.07;;;22.03;;
20559;SDS011;10438;51.454;6.718;2022-12-08T06:41:42;42.70;;;21.03;;
20559;SDS011;10438;51.454;6.718;2022-12-08T06:44:26;42.93;;;21.33;;
20559;SDS011;10438;51.454;6.718;2022-12-08T06:46:51;36.43;;;19.57;;
20559;SDS011;10438;51.454;6.718;2022-12-08T06:49:17;34.90;;;19.07;;
20559;SDS011;10438;51.454;6.718;2022-12-08T06:51:42;34.63;;;19.00;;
20559;SDS011;10438;51.454;6.718;2022-12-08T06:54:08;38.13;;;18.93;;
20559;SDS011;10438;51.454;6.718;2022-12-08T06:56:33;39.73;;;19.67;;
20559;SDS011;10438;51.454;6.718;2022-12-08T06:58:59;36.73;;;18.70;;
20559;SDS011;10438;51.454;6.718;2022-12-08T07:01:24;32.27;;;17.40;;
20559;SDS011;10438;51.454;6.718;2022-12-08T07:03:50;37.30;;;18.43;;
20559;SDS011;10438;51.454;6.718;2022-12-08T07:06:17;33.00;;;17.77;;
20559;SDS011;10438;51.454;6.718;2022-12-08T07:08:46;33.93;;;18.07;;
20559;SDS011;10438;51.454;6.718;2022-12-08T07:11:12;36.67;;;19.40;;
20559;SDS011;10438;51.454;6.718;2022-12-08T07:13:37;32.83;;;17.90;;
20559;SDS011;10438;51.454;6.718;2022-12-08T07:16:04;30.87;;;17.47;;
20559;SDS011;10438;51.454;6.718;2022-12-08T07:18:31;33.43;;;16.53;;
20559;SDS011;10438;51.454;6.718;2022-12-08T07:21:01;28.73;;;16.53;;
20559;SDS011;10438;51.454;6.718;2022-12-08T07:23:30;32.93;;;17.23;;
20559;SDS011;10438;51.454;6.718;2022-12-08T07:25:58;32.33;;;17.37;;
20559;SDS011;10438;51.454;6.718;2022-12-08T07:28:25;31.43;;;17.13;;
20559;SDS011;10438;51.454;6.718;2022-12-08T07:30:51;29.63;;;16.50;;
20559;SDS011;10438;51.454;6.718;2022-12-08T07:33:17;34.60;;;17.40;;
20559;SDS011;10438;51.454;6.718;2022-12-08T07:35:42;36.77;;;18.37;;
20559;SDS011;10438;51.454;6.718;2022-12-08T07:38:11;29.83;;;17.07;;
20559;SDS011;10438;51.454;6.718;2022-12-08T07:40:37;32.10;;;16.83;;
20559;SDS011;10438;51.454;6.718;2022-12-08T07:43:03;23.87;;;13.93;;
20559;SDS011;10438;51.454;6.718;2022-12-08T07:45:28;22.47;;;13.90;;
20559;SDS011;10438;51.454;6.718;2022-12-08T07:47:54;21.83;;;13.53;;
20559;SDS011;10438;51.454;6.718;2022-12-08T07:50:19;24.33;;;13.53;;
20559;SDS011;10438;51.454;6.718;2022-12-08T07:52:45;27.30;;;13.47;;
20559;SDS011;10438;51.454;6.718;2022-12-08T07:55:10;22.97;;;13.33;;
20559;SDS011;10438;51.454;6.718;2022-12-08T07:57:36;26.53;;;14.73;;
20559;SDS011;10438;51.454;6.718;2022-12-08T08:00:02;21.87;;;13.40;;
20559;SDS011;10438;51.454;6.718;2022-12-08T08:02:28;22.10;;;13.70;;
20559;SDS011;10438;51.454;6.718;2022-12-08T08:04:54;28.43;;;14.57;;
20559;SDS011;10438;51.454;6.718;2022-12-08T08:07:19;26.37;;;14.30;;
20559;SDS011;10438;51.454;6.718;2022-12-08T08:09:45;27.13;;;14.07;;
20559;SDS011;10438;51.454;6.718;2022-12-08T08:12:10;24.63;;;14.63;;
20559;SDS011;10438;51.454;6.718;2022-12-08T08:14:37;24.37;;;14.70;;
20559;SDS011;10438;51.454;6.718;2022-12-08T08:17:02;22.37;;;13.03;;
20559;SDS011;10438;51.454;6.718;2022-12-08T08:19:28;27.10;;;13.60;;
20559;SDS011;10438;51.454;6.718;2022-12-08T08:21:53;24.33;;;13.03;;
20559;SDS011;10438;51.454;6.718;2022-12-08T08:24:19;24.13;;;13.40;;
20559;SDS011;10438;51.454;6.718;2022-12-08T08:26:46;23.90;;;13.97;;
20559;SDS011;10438;51.454;6.718;2022-12-08T08:29:11;21.47;;;12.67;;
20559;SDS011;10438;51.454;6.718;2022-12-08T08:31:37;22.30;;;12.87;;
20559;SDS011;10438;51.454;6.718;2022-12-08T08:34:02;23.83;;;11.93;;
20559;SDS011;10438;51.454;6.718;2022-12-08T08:36:30;26.33;;;13.73;;
20559;SDS011;10438;51.454;6.718;2022-12-08T08:38:56;24.63;;;12.83;;
20559;SDS011;10438;51.454;6.718;2022-12-08T08:41:21;25.63;;;13.63;;
20559;SDS011;10438;51.454;6.718;2022-12-08T08:43:47;24.87;;;13.33;;
20559;SDS011;10438;51.454;6.718;2022-12-08T08:46:12;24.27;;;13.20;;
20559;SDS011;10438;51.454;6.718;2022-12-08T08:48:38;28.93;;;14.97;;
20559;SDS011;10438;51.454;6.718;2022-12-08T08:51:07;23.93;;;13.27;;
20559;SDS011;10438;51.454;6.718;2022-12-08T08:53:34;25.10;;;14.70;;
20559;SDS011;10438;51.454;6.718;2022-12-08T08:56:00;30.67;;;16.13;;
20559;SDS011;10438;51.454;6.718;2022-12-08T08:58:29;28.27;;;15.80;;
20559;SDS011;10438;51.454;6.718;2022-12-08T09:00:54;32.13;;;18.07;;
20559;SDS011;10438;51.454;6.718;2022-12-08T09:03:20;33.83;;;18.77;;
20559;SDS011;10438;51.454;6.718;2022-12-08T09:05:45;36.33;;;19.23;;
20559;SDS011;10438;51.454;6.718;2022-12-08T09:08:11;34.43;;;18.27;;
20559;SDS011;10438;51.454;6.718;2022-12-08T09:10:36;34.33;;;18.97;;
20559;SDS011;10438;51.454;6.718;2022-12-08T09:13:02;36.60;;;20.40;;
20559;SDS011;10438;51.454;6.718;2022-12-08T09:15:28;38.67;;;21.73;;
20559;SDS011;10438;51.454;6.718;2022-12-08T09:17:53;41.37;;;23.23;;
20559;SDS011;10438;51.454;6.718;2022-12-08T09:20:19;42.50;;;22.57;;
20559;SDS011;10438;51.454;6.718;2022-12-08T09:22:44;46.07;;;22.97;;
20559;SDS011;10438;51.454;6.718;2022-12-08T09:25:10;49.37;;;24.47;;
20559;SDS011;10438;51.454;6.718;2022-12-08T09:27:35;47.50;;;25.67;;
20559;SDS011;10438;51.454;6.718;2022-12-08T09:30:01;47.27;;;25.97;;
20559;SDS011;10438;51.454;6.718;2022-12-08T09:32:26;51.73;;;26.30;;
20559;SDS011;10438;51.454;6.718;2022-12-08T09:34:51;53.40;;;26.70;;
20559;SDS011;10438;51.454;6.718;2022-12-08T09:37:18;50.13;;;26.87;;
20559;SDS011;10438;51.454;6.718;2022-12-08T09:39:43;47.90;;;25.90;;
20559;SDS011;10438;51.454;6.718;2022-12-08T09:42:09;55.20;;;26.80;;
20559;SDS011;10438;51.454;6.718;2022-12-08T09:49:44;47.47;;;24.73;;
20559;SDS011;10438;51.454;6.718;2022-12-08T09:52:25;45.30;;;23.63;;
20559;SDS011;10438;51.454;6.718;2022-12-08T09:54:56;44.80;;;24.43;;
20559;SDS011;10438;51.454;6.718;2022-12-08T09:57:25;46.73;;;24.20;;
20559;SDS011;10438;51.454;6.718;2022-12-08T09:59:54;38.70;;;23.07;;
20559;SDS011;10438;51.454;6.718;2022-12-08T10:02:26;41.40;;;24.27;;
20559;SDS011;10438;51.454;6.718;2022-12-08T10:04:53;37.33;;;21.80;;
20559;SDS011;10438;51.454;6.718;2022-12-08T10:07:36;43.27;;;21.23;;
20559;SDS011;10438;51.454;6.718;2022-12-08T10:10:37;33.90;;;21.77;;
20559;SDS011;10438;51.454;6.718;2022-12-08T10:18:24;44.10;;;22.77;;
20559;SDS011;10438;51.454;6.718;2022-12-08T10:20:53;37.33;;;21.77;;
20559;SDS011;10438;51.454;6.718;2022-12-08T10:23:34;40.73;;;22.63;;
20559;SDS011;10438;51.454;6.718;2022-12-08T10:26:03;45.00;;;24.17;;
20559;SDS011;10438;51.454;6.718;2022-12-08T10:28:36;41.40;;;23.53;;
20559;SDS011;10438;51.454;6.718;2022-12-08T10:31:02;43.87;;;24.03;;
20559;SDS011;10438;51.454;6.718;2022-12-08T10:33:30;42.47;;;24.10;;
20559;SDS011;10438;51.454;6.718;2022-12-08T10:35:57;42.53;;;25.13;;
20559;SDS011;10438;51.454;6.718;2022-12-08T10:38:28;45.60;;;25.03;;
20559;SDS011;10438;51.454;6.718;2022-12-08T10:41:03;49.03;;;25.57;;
20559;SDS011;10438;51.454;6.718;2022-12-08T10:43:37;51.47;;;25.27;;
20559;SDS011;10438;51.454;6.718;2022-12-08T10:46:25;44.67;;;25.60;;
20559;SDS011;10438;51.454;6.718;2022-12-08T10:49:08;48.47;;;27.33;;
20559;SDS011;10438;51.454;6.718;2022-12-08T10:51:39;47.63;;;27.03;;
20559;SDS011;10438;51.454;6.718;2022-12-08T10:54:26;49.90;;;28.57;;
20559;SDS011;10438;51.454;6.718;2022-12-08T10:56:54;48.80;;;28.37;;
20559;SDS011;10438;51.454;6.718;2022-12-08T10:59:20;56.20;;;28.80;;
20559;SDS011;10438;51.454;6.718;2022-12-08T11:01:47;49.17;;;28.50;;
20559;SDS011;10438;51.454;6.718;2022-12-08T11:04:18;52.00;;;30.23;;
20559;SDS011;10438;51.454;6.718;2022-12-08T11:06:46;52.13;;;29.00;;
20559;SDS011;10438;51.454;6.718;2022-12-08T11:11:52;58.07;;;29.33;;
20559;SDS011;10438;51.454;6.718;2022-12-08T11:16:55;55.63;;;30.03;;
20559;SDS011;10438;51.454;6.718;2022-12-08T11:19:29;55.53;;;29.80;;
20559;SDS011;10438;51.454;6.718;2022-12-08T11:21:54;54.07;;;30.83;;
20559;SDS011;10438;51.454;6.718;2022-12-08T11:24:24;60.73;;;29.83;;
20559;SDS011;10438;51.454;6.718;2022-12-08T11:27:00;53.40;;;29.40;;
20559;SDS011;10438;51.454;6.718;2022-12-08T11:29:27;60.83;;;31.20;;
20559;SDS011;10438;51.454;6.718;2022-12-08T11:31:56;57.37;;;30.37;;
20559;SDS011;10438;51.454;6.718;2022-12-08T11:34:29;55.37;;;29.90;;
20559;SDS011;10438;51.454;6.718;2022-12-08T11:37:05;50.47;;;28.40;;
20559;SDS011;10438;51.454;6.718;2022-12-08T11:39:40;57.60;;;29.00;;
20559;SDS011;10438;51.454;6.718;2022-12-08T11:42:09;51.53;;;28.33;;
20559;SDS011;10438;51.454;6.718;2022-12-08T11:44:50;46.10;;;29.40;;
20559;SDS011;10438;51.454;6.718;2022-12-08T11:47:25;48.97;;;27.93;;
20559;SDS011;10438;51.454;6.718;2022-12-08T11:49:59;43.33;;;24.87;;
20559;SDS011;10438;51.454;6.718;2022-12-08T11:52:42;39.00;;;21.13;;
20559;SDS011;10438;51.454;6.718;2022-12-08T11:55:23;26.77;;;16.13;;
20559;SDS011;10438;51.454;6.718;2022-12-08T11:58:17;24.13;;;14.10;;
20559;SDS011;10438;51.454;6.718;2022-12-08T12:00:46;20.90;;;13.17;;
20559;SDS011;10438;51.454;6.718;2022-12-08T12:03:26;19.67;;;12.43;;
20559;SDS011;10438;51.454;6.718;2022-12-08T12:09:00;19.47;;;12.33;;
20559;SDS011;10438;51.454;6.718;2022-12-08T12:11:56;20.97;;;13.10;;
20559;SDS011;10438;51.454;6.718;2022-12-08T12:14:42;26.23;;;14.70;;
20559;SDS011;10438;51.454;6.718;2022-12-08T12:19:58;23.43;;;14.47;;
20559;SDS011;10438;51.454;6.718;2022-12-08T12:22:30;22.40;;;14.43;;
20559;SDS011;10438;51.454;6.718;2022-12-08T12:24:58;23.70;;;14.77;;
20559;SDS011;10438;51.454;6.718;2022-12-08T12:27:29;22.47;;;14.70;;
20559;SDS011;10438;51.454;6.718;2022-12-08T12:30:03;23.47;;;14.80;;
20559;SDS011;10438;51.454;6.718;2022-12-08T12:32:44;25.60;;;15.60;;
20559;SDS011;10438;51.454;6.718;2022-12-08T12:35:19;26.47;;;16.30;;
20559;SDS011;10438;51.454;6.718;2022-12-08T12:37:53;24.07;;;15.93;;
20559;SDS011;10438;51.454;6.718;2022-12-08T12:40:23;25.93;;;17.53;;
20559;SDS011;10438;51.454;6.718;2022-12-08T12:47:49;30.47;;;17.97;;
20559;SDS011;10438;51.454;6.718;2022-12-08T12:58:52;26.03;;;16.87;;
20559;SDS011;10438;51.454;6.718;2022-12-08T13:03:40;26.07;;;16.30;;
20559;SDS011;10438;51.454;6.718;2022-12-08T13:06:08;25.03;;;15.57;;
20559;SDS011;10438;51.454;6.718;2022-12-08T13:08:39;27.33;;;16.07;;
20559;SDS011;10438;51.454;6.718;2022-12-08T13:11:13;25.47;;;16.27;;
20559;SDS011;10438;51.454;6.718;2022-12-08T13:13:59;27.50;;;16.90;;
20559;SDS011;10438;51.454;6.718;2022-12-08T13:16:30;27.37;;;16.23;;
20559;SDS011;10438;51.454;6.718;2022-12-08T13:18:58;28.63;;;17.53;;
20559;SDS011;10438;51.454;6.718;2022-12-08T13:21:31;31.63;;;16.97;;
20559;SDS011;10438;51.454;6.718;2022-12-08T13:29:22;31.17;;;18.30;;
20559;SDS011;10438;51.454;6.718;2022-12-08T13:31:58;29.77;;;17.53;;
20559;SDS011;10438;51.454;6.718;2022-12-08T13:37:16;34.80;;;19.47;;
20559;SDS011;10438;51.454;6.718;2022-12-08T13:42:28;38.27;;;21.07;;
20559;SDS011;10438;51.454;6.718;2022-12-08T13:50:29;37.33;;;20.57;;
20559;SDS011;10438;51.454;6.718;2022-12-08T13:53:32;36.00;;;19.87;;
20559;SDS011;10438;51.454;6.718;2022-12-08T13:56:02;39.50;;;20.80;;
20559;SDS011;10438;51.454;6.718;2022-12-08T13:58:31;39.10;;;20.83;;
20559;SDS011;10438;51.454;6.718;2022-12-08T14:01:03;41.43;;;21.47;;
20559;SDS011;10438;51.454;6.718;2022-12-08T14:03:43;37.90;;;20.43;;
20559;SDS011;10438;51.454;6.718;2022-12-08T14:06:18;39.57;;;20.87;;
20559;SDS011;10438;51.454;6.718;2022-12-08T14:08:53;36.57;;;21.00;;
20559;SDS011;10438;51.454;6.718;2022-12-08T14:14:11;32.87;;;17.67;;
20559;SDS011;10438;51.454;6.718;2022-12-08T14:16:41;31.67;;;17.80;;
20559;SDS011;10438;51.454;6.718;2022-12-08T14:19:15;31.67;;;18.53;;
20559;SDS011;10438;51.454;6.718;2022-12-08T14:22:10;34.03;;;20.30;;
20559;SDS011;10438;51.454;6.718;2022-12-08T14:24:38;31.77;;;18.87;;
20559;SDS011;10438;51.454;6.718;2022-12-08T14:27:05;32.07;;;19.77;;
20559;SDS011;10438;51.454;6.718;2022-12-08T14:29:53;37.20;;;20.70;;
20559;SDS011;10438;51.454;6.718;2022-12-08T14:34:49;27.60;;;17.03;;
20559;SDS011;10438;51.454;6.718;2022-12-08T14:37:31;29.73;;;16.93;;
20559;SDS011;10438;51.454;6.718;2022-12-08T14:51:13;25.23;;;16.07;;
20559;SDS011;10438;51.454;6.718;2022-12-08T14:56:28;26.90;;;17.10;;
20559;SDS011;10438;51.454;6.718;2022-12-08T14:59:01;31.40;;;17.87;;
20559;SDS011;10438;51.454;6.718;2022-12-08T15:01:45;33.40;;;18.53;;
20559;SDS011;10438;51.454;6.718;2022-12-08T15:06:51;33.00;;;17.37;;
20559;SDS011;10438;51.454;6.718;2022-12-08T15:09:28;31.30;;;18.63;;
20559;SDS011;10438;51.454;6.718;2022-12-08T15:14:38;36.53;;;19.37;;
20559;SDS011;10438;51.454;6.718;2022-12-08T15:19:59;36.97;;;20.17;;
20559;SDS011;10438;51.454;6.718;2022-12-08T15:22:25;34.23;;;18.90;;
20559;SDS011;10438;51.454;6.718;2022-12-08T15:24:52;35.30;;;19.80;;
20559;SDS011;10438;51.454;6.718;2022-12-08T15:27:18;38.10;;;21.57;;
20559;SDS011;10438;51.454;6.718;2022-12-08T15:29:46;37.03;;;20.23;;
20559;SDS011;10438;51.454;6.718;2022-12-08T15:32:12;35.53;;;18.63;;
20559;SDS011;10438;51.454;6.718;2022-12-08T15:34:42;39.40;;;21.73;;
20559;SDS011;10438;51.454;6.718;2022-12-08T15:37:12;37.60;;;21.13;;
20559;SDS011;10438;51.454;6.718;2022-12-08T15:39:44;37.33;;;22.43;;
20559;SDS011;10438;51.454;6.718;2022-12-08T15:42:10;39.80;;;22.43;;
20559;SDS011;10438;51.454;6.718;2022-12-08T15:44:36;45.90;;;23.83;;
20559;SDS011;10438;51.454;6.718;2022-12-08T15:47:02;45.37;;;22.87;;
20559;SDS011;10438;51.454;6.718;2022-12-08T15:49:28;42.23;;;23.20;;
20559;SDS011;10438;51.454;6.718;2022-12-08T15:51:53;46.10;;;24.77;;
20559;SDS011;10438;51.454;6.718;2022-12-08T15:54:19;47.73;;;24.30;;
20559;SDS011;10438;51.454;6.718;2022-12-08T15:56:46;43.00;;;24.70;;
20559;SDS011;10438;51.454;6.718;2022-12-08T15:59:16;42.67;;;23.93;;
20559;SDS011;10438;51.454;6.718;2022-12-08T16:01:43;47.20;;;24.27;;
20559;SDS011;10438;51.454;6.718;2022-12-08T16:04:11;48.97;;;24.53;;
20559;SDS011;10438;51.454;6.718;2022-12-08T16:06:39;49.63;;;25.00;;
20559;SDS011;10438;51.454;6.718;2022-12-08T16:09:10;44.40;;;23.53;;
20559;SDS011;10438;51.454;6.718;2022-12-08T16:11:40;46.80;;;24.13;;
20559;SDS011;10438;51.454;6.718;2022-12-08T16:14:24;43.10;;;24.80;;